• Join FlightAware (Why Join?)
  • Login
  • US Flag 
09:27AM EDT


 

Airport Tracker/Info


-or-


 

Live Flight TrackerFlight Track Log ✈ SKW6377 ✈ 26-Apr-2013 ✈ KCPR - KDEN

Flight Track Log - Related Links

Times and Time Zones

All times are in EDT time to prevent confusion due to time zone crossing. See the SKW6377 flight status page for this flight to view local times or setup timezone preferences in your user account.

Time Position Orientation Groundspeed Altitude Reporting Facility
EDT Latitude Longitude Course Direction KTS MPH feet Rate Location/Type
02:43PM 42.8740 -106.2667 180° South  Level FlightAware Approximate
02:43PM 42.6989 -106.5228 169° South 268 308 12,700  Level Denver Center
02:44PM 42.7644 -106.2667 180° South  Level FlightAware Approximate
02:44PM 42.6036 -106.5039 172° South 295 339 14,200  Level Denver Center
02:45PM 42.6660 -106.2638 176° South  Level FlightAware Approximate
02:45PM 42.5086 -106.4819 170° South 347 399 15,600  Level Denver Center
02:46PM 42.5679 -106.2556 176° South  Level FlightAware Approximate
02:46PM 42.3964 -106.4558 170° South 365 420 17,300  Level Denver Center
02:47PM 42.4696 -106.2500 180° South  Level FlightAware Approximate
02:47PM 42.2972 -106.4336 171° South 375 432 18,400  Level Denver Center
02:48PM 42.1786 -106.4072 171° South 384 442 19,800 1,200 Climbing Denver Center
02:49PM 42.0764 -106.3842 170° South 388 447 21,000 1,080 Climbing Denver Center
02:50PM 41.9733 -106.3611 171° South 391 450 22,100 1,200 Climbing Denver Center
02:51PM 41.8511 -106.3344 171° South 396 456 23,500 1,200 Climbing Denver Center
02:52PM 41.7469 -106.3100 170° South 398 458 24,600 1,200 Climbing Denver Center
02:53PM 41.6244 -106.2833 171° South 399 459 26,000 1,140 Climbing Denver Center
02:54PM 41.5181 -106.2597 171° South 403 464 27,000 480 Climbing Denver Center
02:55PM 41.3942 -106.2183 166° South 411 473 27,000  Level Denver Center
02:56PM 41.2803 -106.1681 162° South 432 497 27,000  Level Denver Center
02:57PM 41.1519 -106.1150 163° South 440 506 27,000  Level Denver Center
02:58PM 41.0428 -106.0547 157° South 444 511 27,000 -60 Level Denver Center
02:59PM 40.9208 -105.9853 157° South 435 501 26,900 -420 Descending Denver Center
03:00PM 40.8281 -105.8464 131° Southeast 434 499 26,100 -720 Descending Denver Center
03:01PM 40.7583 -105.7186 126° Southeast 428 493 25,300 -900 Descending Denver Center
03:02PM 40.6897 -105.5953 126° Southeast 418 481 24,300 -1,200 Descending Denver Center
03:03PM 40.6150 -105.4642 127° Southeast 386 444 22,900 -1,320 Descending Denver Center
03:04PM 40.5542 -105.3503 125° Southeast 377 434 21,600 -1,260 Descending Denver Center
03:05PM 40.4964 -105.2458 126° Southeast 356 410 20,400 -1,260 Descending Denver Center
03:06PM 40.4119 -105.1722 146° Southeast 345 397 19,000 -1,260 Descending Denver Center
03:08PM 40.3317 -105.1092 149° Southeast 336 387 17,800 -1,200 Descending Denver Center
03:09PM 40.2450 -105.0400 149° Southeast 338 389 16,600 -1,260 Descending Denver Center
03:10PM 40.1667 -104.9772 149° Southeast 330 380 15,200 -1,320 Descending Denver Center
03:11PM 40.0897 -104.9156 148° Southeast 325 374 13,900 -1,080 Descending Denver Center
03:12PM 40.0114 -104.8536 149° Southeast 308 354 13,000 -780 Descending Denver Center
03:13PM 39.9353 -104.8233 163° South 298 343 12,300 -960 Descending Denver Center
03:14PM 39.8533 -104.8375 188° South 276 318 11,100 -600 Descending Denver Center
03:15PM 39.7811 -104.8561 191° South 245 282 11,100  Level Denver Center
03:16PM 39.7136 -104.8739 191° South 248 285 11,100 -360 Level Denver Center
03:17PM 39.6428 -104.8703 178° South 260 299 10,400 -780 Descending Denver Center
03:18PM 39.6136 -104.7983 118° Southeast 254 292 9,500 -660 Descending Denver Center
03:19PM 39.6492 -104.7272 57° Northeast 242 278 9,100 -660 Descending Denver Center
03:20PM 39.7075 -104.6872 28° Northeast 227 261 8,200 -900 Descending Denver Center